sensor_id;sensor_type;location;lat;lon;timestamp;P1;durP1;ratioP1;P2;durP2;ratioP2
50671;SDS011;46021;55.882;37.654;2022-07-12T00:01:18;2.75;;;1.70;;
50671;SDS011;46021;55.882;37.654;2022-07-12T00:03:45;3.93;;;2.00;;
50671;SDS011;46021;55.882;37.654;2022-07-12T00:06:11;7.63;;;2.40;;
50671;SDS011;46021;55.882;37.654;2022-07-12T00:08:38;3.10;;;2.07;;
50671;SDS011;46021;55.882;37.654;2022-07-12T00:11:04;3.63;;;2.17;;
50671;SDS011;46021;55.882;37.654;2022-07-12T00:13:31;8.02;;;2.30;;
50671;SDS011;46021;55.882;37.654;2022-07-12T00:15:59;4.68;;;2.40;;
50671;SDS011;46021;55.882;37.654;2022-07-12T00:18:25;4.28;;;2.60;;
50671;SDS011;46021;55.882;37.654;2022-07-12T00:20:51;11.13;;;2.17;;
50671;SDS011;46021;55.882;37.654;2022-07-12T00:23:18;3.00;;;2.03;;
50671;SDS011;46021;55.882;37.654;2022-07-12T00:25:44;4.00;;;2.30;;
50671;SDS011;46021;55.882;37.654;2022-07-12T00:28:11;5.35;;;2.70;;
50671;SDS011;46021;55.882;37.654;2022-07-12T00:30:38;4.17;;;2.33;;
50671;SDS011;46021;55.882;37.654;2022-07-12T00:33:05;6.05;;;2.47;;
50671;SDS011;46021;55.882;37.654;2022-07-12T00:35:31;4.57;;;2.53;;
50671;SDS011;46021;55.882;37.654;2022-07-12T00:37:58;4.43;;;2.75;;
50671;SDS011;46021;55.882;37.654;2022-07-12T00:40:24;3.70;;;2.47;;
50671;SDS011;46021;55.882;37.654;2022-07-12T00:42:51;5.57;;;2.67;;
50671;SDS011;46021;55.882;37.654;2022-07-12T00:45:18;6.90;;;2.65;;
50671;SDS011;46021;55.882;37.654;2022-07-12T00:47:44;5.95;;;2.92;;
50671;SDS011;46021;55.882;37.654;2022-07-12T00:50:13;4.65;;;2.90;;
50671;SDS011;46021;55.882;37.654;2022-07-12T00:52:42;6.80;;;2.67;;
50671;SDS011;46021;55.882;37.654;2022-07-12T00:57:36;3.60;;;2.67;;
50671;SDS011;46021;55.882;37.654;2022-07-12T01:00:04;4.45;;;2.63;;
50671;SDS011;46021;55.882;37.654;2022-07-12T01:02:33;5.80;;;2.88;;
50671;SDS011;46021;55.882;37.654;2022-07-12T01:05:01;4.20;;;2.85;;
50671;SDS011;46021;55.882;37.654;2022-07-12T01:07:31;4.95;;;3.00;;
50671;SDS011;46021;55.882;37.654;2022-07-12T01:10:00;6.28;;;2.90;;
50671;SDS011;46021;55.882;37.654;2022-07-12T01:12:28;4.40;;;2.92;;
50671;SDS011;46021;55.882;37.654;2022-07-12T01:14:56;11.45;;;3.47;;
50671;SDS011;46021;55.882;37.654;2022-07-12T01:17:24;10.95;;;4.43;;
50671;SDS011;46021;55.882;37.654;2022-07-12T01:19:52;8.50;;;4.88;;
50671;SDS011;46021;55.882;37.654;2022-07-12T01:22:25;7.78;;;4.85;;
50671;SDS011;46021;55.882;37.654;2022-07-12T01:24:53;12.38;;;5.10;;
50671;SDS011;46021;55.882;37.654;2022-07-12T01:27:20;13.32;;;4.90;;
50671;SDS011;46021;55.882;37.654;2022-07-12T01:29:46;11.52;;;4.95;;
50671;SDS011;46021;55.882;37.654;2022-07-12T01:32:13;11.82;;;5.43;;
50671;SDS011;46021;55.882;37.654;2022-07-12T01:34:52;10.10;;;5.20;;
50671;SDS011;46021;55.882;37.654;2022-07-12T01:37:21;8.65;;;4.78;;
50671;SDS011;46021;55.882;37.654;2022-07-12T01:39:49;8.73;;;4.75;;
50671;SDS011;46021;55.882;37.654;2022-07-12T01:42:19;11.18;;;4.70;;
50671;SDS011;46021;55.882;37.654;2022-07-12T01:44:46;9.98;;;5.07;;
50671;SDS011;46021;55.882;37.654;2022-07-12T01:47:14;5.97;;;4.20;;
50671;SDS011;46021;55.882;37.654;2022-07-12T01:49:40;7.40;;;4.00;;
50671;SDS011;46021;55.882;37.654;2022-07-12T01:52:07;10.27;;;4.40;;
50671;SDS011;46021;55.882;37.654;2022-07-12T01:54:34;8.70;;;3.90;;
50671;SDS011;46021;55.882;37.654;2022-07-12T01:57:01;5.78;;;3.55;;
50671;SDS011;46021;55.882;37.654;2022-07-12T01:59:28;6.83;;;4.00;;
50671;SDS011;46021;55.882;37.654;2022-07-12T02:01:56;6.10;;;3.65;;
50671;SDS011;46021;55.882;37.654;2022-07-12T02:04:23;5.45;;;3.72;;
50671;SDS011;46021;55.882;37.654;2022-07-12T02:06:49;8.23;;;3.65;;
50671;SDS011;46021;55.882;37.654;2022-07-12T02:09:16;7.55;;;3.95;;
50671;SDS011;46021;55.882;37.654;2022-07-12T02:11:43;6.37;;;4.20;;
50671;SDS011;46021;55.882;37.654;2022-07-12T02:14:10;5.82;;;3.95;;
50671;SDS011;46021;55.882;37.654;2022-07-12T02:16:38;7.25;;;4.53;;
50671;SDS011;46021;55.882;37.654;2022-07-12T02:21:31;8.65;;;4.10;;
50671;SDS011;46021;55.882;37.654;2022-07-12T02:23:58;6.68;;;4.43;;
50671;SDS011;46021;55.882;37.654;2022-07-12T02:26:25;9.03;;;4.60;;
50671;SDS011;46021;55.882;37.654;2022-07-12T02:28:52;6.20;;;4.35;;
50671;SDS011;46021;55.882;37.654;2022-07-12T02:31:19;6.50;;;4.53;;
50671;SDS011;46021;55.882;37.654;2022-07-12T02:33:46;9.45;;;4.60;;
50671;SDS011;46021;55.882;37.654;2022-07-12T02:36:13;10.52;;;4.88;;
50671;SDS011;46021;55.882;37.654;2022-07-12T02:38:39;8.43;;;4.85;;
50671;SDS011;46021;55.882;37.654;2022-07-12T02:41:06;10.68;;;5.28;;
50671;SDS011;46021;55.882;37.654;2022-07-12T02:43:33;9.05;;;5.10;;
50671;SDS011;46021;55.882;37.654;2022-07-12T02:46:02;11.05;;;4.85;;
50671;SDS011;46021;55.882;37.654;2022-07-12T02:48:31;8.55;;;4.53;;
50671;SDS011;46021;55.882;37.654;2022-07-12T02:50:59;14.20;;;5.15;;
50671;SDS011;46021;55.882;37.654;2022-07-12T02:53:26;6.38;;;4.43;;
50671;SDS011;46021;55.882;37.654;2022-07-12T02:55:52;6.87;;;4.80;;
50671;SDS011;46021;55.882;37.654;2022-07-12T02:58:19;6.88;;;4.60;;
50671;SDS011;46021;55.882;37.654;2022-07-12T03:00:45;9.00;;;4.47;;
50671;SDS011;46021;55.882;37.654;2022-07-12T03:03:12;9.20;;;4.90;;
50671;SDS011;46021;55.882;37.654;2022-07-12T03:05:39;11.48;;;4.78;;
50671;SDS011;46021;55.882;37.654;2022-07-12T03:08:07;6.05;;;4.60;;
50671;SDS011;46021;55.882;37.654;2022-07-12T03:10:34;6.70;;;4.85;;
50671;SDS011;46021;55.882;37.654;2022-07-12T03:13:01;9.55;;;4.80;;
50671;SDS011;46021;55.882;37.654;2022-07-12T03:15:29;11.05;;;4.68;;
50671;SDS011;46021;55.882;37.654;2022-07-12T03:17:56;9.85;;;5.00;;
50671;SDS011;46021;55.882;37.654;2022-07-12T03:20:23;7.28;;;4.15;;
50671;SDS011;46021;55.882;37.654;2022-07-12T03:22:50;6.45;;;4.55;;
50671;SDS011;46021;55.882;37.654;2022-07-12T03:25:19;7.68;;;4.93;;
50671;SDS011;46021;55.882;37.654;2022-07-12T03:27:46;9.73;;;4.13;;
50671;SDS011;46021;55.882;37.654;2022-07-12T03:30:13;5.77;;;4.60;;
50671;SDS011;46021;55.882;37.654;2022-07-12T03:32:39;14.70;;;4.90;;
50671;SDS011;46021;55.882;37.654;2022-07-12T03:35:07;7.68;;;4.38;;
50671;SDS011;46021;55.882;37.654;2022-07-12T03:37:40;5.32;;;4.22;;
50671;SDS011;46021;55.882;37.654;2022-07-12T03:40:07;11.77;;;4.70;;
50671;SDS011;46021;55.882;37.654;2022-07-12T03:42:36;7.43;;;4.40;;
50671;SDS011;46021;55.882;37.654;2022-07-12T03:45:03;5.72;;;4.20;;
50671;SDS011;46021;55.882;37.654;2022-07-12T03:47:30;5.72;;;4.10;;
50671;SDS011;46021;55.882;37.654;2022-07-12T03:49:57;7.80;;;4.80;;
50671;SDS011;46021;55.882;37.654;2022-07-12T03:52:24;7.87;;;4.37;;
50671;SDS011;46021;55.882;37.654;2022-07-12T03:54:50;6.95;;;4.72;;
50671;SDS011;46021;55.882;37.654;2022-07-12T03:57:17;8.80;;;4.77;;
50671;SDS011;46021;55.882;37.654;2022-07-12T03:59:44;6.40;;;4.38;;
50671;SDS011;46021;55.882;37.654;2022-07-12T04:02:11;8.00;;;4.60;;
50671;SDS011;46021;55.882;37.654;2022-07-12T04:04:38;10.07;;;5.03;;
50671;SDS011;46021;55.882;37.654;2022-07-12T04:07:06;7.68;;;4.55;;
50671;SDS011;46021;55.882;37.654;2022-07-12T04:09:33;9.30;;;4.78;;
50671;SDS011;46021;55.882;37.654;2022-07-12T04:11:59;8.52;;;4.82;;
50671;SDS011;46021;55.882;37.654;2022-07-12T04:16:54;16.25;;;4.65;;
50671;SDS011;46021;55.882;37.654;2022-07-12T04:19:21;11.63;;;4.93;;
50671;SDS011;46021;55.882;37.654;2022-07-12T04:21:52;7.68;;;4.30;;
50671;SDS011;46021;55.882;37.654;2022-07-12T04:24:19;7.07;;;4.43;;
50671;SDS011;46021;55.882;37.654;2022-07-12T04:26:46;6.43;;;4.47;;
50671;SDS011;46021;55.882;37.654;2022-07-12T04:29:14;8.77;;;4.88;;
50671;SDS011;46021;55.882;37.654;2022-07-12T04:31:41;9.52;;;4.80;;
50671;SDS011;46021;55.882;37.654;2022-07-12T04:34:08;7.68;;;4.68;;
50671;SDS011;46021;55.882;37.654;2022-07-12T04:36:34;9.55;;;4.72;;
50671;SDS011;46021;55.882;37.654;2022-07-12T04:39:01;10.43;;;4.95;;
50671;SDS011;46021;55.882;37.654;2022-07-12T04:41:28;9.27;;;4.57;;
50671;SDS011;46021;55.882;37.654;2022-07-12T04:43:54;7.65;;;4.43;;
50671;SDS011;46021;55.882;37.654;2022-07-12T04:46:21;8.88;;;5.10;;
50671;SDS011;46021;55.882;37.654;2022-07-12T04:48:48;6.57;;;4.20;;
50671;SDS011;46021;55.882;37.654;2022-07-12T04:51:15;9.80;;;4.80;;
50671;SDS011;46021;55.882;37.654;2022-07-12T04:53:42;8.25;;;4.75;;
50671;SDS011;46021;55.882;37.654;2022-07-12T04:56:09;6.30;;;4.35;;
50671;SDS011;46021;55.882;37.654;2022-07-12T04:58:35;7.87;;;4.47;;
50671;SDS011;46021;55.882;37.654;2022-07-12T05:01:02;10.63;;;4.93;;
50671;SDS011;46021;55.882;37.654;2022-07-12T05:03:29;9.95;;;4.53;;
50671;SDS011;46021;55.882;37.654;2022-07-12T05:05:55;9.85;;;4.05;;
50671;SDS011;46021;55.882;37.654;2022-07-12T05:08:24;7.55;;;4.05;;
50671;SDS011;46021;55.882;37.654;2022-07-12T05:10:50;12.52;;;4.78;;
50671;SDS011;46021;55.882;37.654;2022-07-12T05:13:17;6.78;;;4.00;;
50671;SDS011;46021;55.882;37.654;2022-07-12T05:15:43;7.57;;;4.10;;
50671;SDS011;46021;55.882;37.654;2022-07-12T05:18:10;5.55;;;3.67;;
50671;SDS011;46021;55.882;37.654;2022-07-12T05:20:36;11.35;;;4.20;;
50671;SDS011;46021;55.882;37.654;2022-07-12T05:23:03;7.47;;;3.80;;
50671;SDS011;46021;55.882;37.654;2022-07-12T05:25:30;8.10;;;4.32;;
50671;SDS011;46021;55.882;37.654;2022-07-12T05:27:56;7.45;;;3.97;;
50671;SDS011;46021;55.882;37.654;2022-07-12T05:30:24;10.93;;;4.47;;
50671;SDS011;46021;55.882;37.654;2022-07-12T05:32:51;6.18;;;3.75;;
50671;SDS011;46021;55.882;37.654;2022-07-12T05:35:18;9.05;;;4.35;;
50671;SDS011;46021;55.882;37.654;2022-07-12T05:37:44;7.37;;;4.53;;
50671;SDS011;46021;55.882;37.654;2022-07-12T05:40:11;7.07;;;4.95;;
50671;SDS011;46021;55.882;37.654;2022-07-12T05:42:38;7.38;;;4.78;;
50671;SDS011;46021;55.882;37.654;2022-07-12T05:47:32;10.55;;;5.53;;
50671;SDS011;46021;55.882;37.654;2022-07-12T05:49:58;17.15;;;5.50;;
50671;SDS011;46021;55.882;37.654;2022-07-12T05:52:25;10.73;;;4.50;;
50671;SDS011;46021;55.882;37.654;2022-07-12T05:55:09;10.77;;;4.68;;
50671;SDS011;46021;55.882;37.654;2022-07-12T05:57:36;8.57;;;4.33;;
50671;SDS011;46021;55.882;37.654;2022-07-12T06:00:04;9.87;;;4.90;;
50671;SDS011;46021;55.882;37.654;2022-07-12T06:02:31;10.50;;;4.50;;
50671;SDS011;46021;55.882;37.654;2022-07-12T06:04:57;10.77;;;7.13;;
50671;SDS011;46021;55.882;37.654;2022-07-12T06:07:24;7.50;;;4.20;;
50671;SDS011;46021;55.882;37.654;2022-07-12T06:09:50;7.78;;;4.60;;
50671;SDS011;46021;55.882;37.654;2022-07-12T06:12:17;8.17;;;5.10;;
50671;SDS011;46021;55.882;37.654;2022-07-12T06:14:44;7.57;;;4.60;;
50671;SDS011;46021;55.882;37.654;2022-07-12T06:17:11;6.38;;;4.22;;
50671;SDS011;46021;55.882;37.654;2022-07-12T06:19:37;11.10;;;4.18;;
50671;SDS011;46021;55.882;37.654;2022-07-12T06:22:04;17.80;;;4.53;;
50671;SDS011;46021;55.882;37.654;2022-07-12T06:24:31;13.10;;;7.30;;
50671;SDS011;46021;55.882;37.654;2022-07-12T06:26:57;10.50;;;4.88;;
50671;SDS011;46021;55.882;37.654;2022-07-12T06:29:23;8.35;;;4.22;;
50671;SDS011;46021;55.882;37.654;2022-07-12T06:31:50;9.97;;;5.23;;
50671;SDS011;46021;55.882;37.654;2022-07-12T06:34:17;9.90;;;4.83;;
50671;SDS011;46021;55.882;37.654;2022-07-12T06:36:44;7.18;;;4.25;;
50671;SDS011;46021;55.882;37.654;2022-07-12T06:39:10;11.07;;;5.13;;
50671;SDS011;46021;55.882;37.654;2022-07-12T06:41:37;12.93;;;3.97;;
50671;SDS011;46021;55.882;37.654;2022-07-12T06:44:04;8.80;;;4.50;;
50671;SDS011;46021;55.882;37.654;2022-07-12T06:46:30;6.35;;;4.15;;
50671;SDS011;46021;55.882;37.654;2022-07-12T06:48:57;7.03;;;4.13;;
50671;SDS011;46021;55.882;37.654;2022-07-12T06:51:24;9.07;;;3.83;;
50671;SDS011;46021;55.882;37.654;2022-07-12T06:53:50;8.45;;;4.38;;
50671;SDS011;46021;55.882;37.654;2022-07-12T06:56:17;11.88;;;4.78;;
50671;SDS011;46021;55.882;37.654;2022-07-12T06:58:43;10.23;;;4.83;;
50671;SDS011;46021;55.882;37.654;2022-07-12T07:01:10;10.30;;;5.03;;
50671;SDS011;46021;55.882;37.654;2022-07-12T07:03:36;10.52;;;4.93;;
50671;SDS011;46021;55.882;37.654;2022-07-12T07:06:03;12.63;;;6.10;;
50671;SDS011;46021;55.882;37.654;2022-07-12T07:08:30;15.50;;;5.23;;
50671;SDS011;46021;55.882;37.654;2022-07-12T07:13:23;14.45;;;5.32;;
50671;SDS011;46021;55.882;37.654;2022-07-12T07:15:50;8.87;;;4.73;;
50671;SDS011;46021;55.882;37.654;2022-07-12T07:18:16;11.10;;;5.18;;
50671;SDS011;46021;55.882;37.654;2022-07-12T07:20:43;9.05;;;4.90;;
50671;SDS011;46021;55.882;37.654;2022-07-12T07:23:09;8.93;;;5.15;;
50671;SDS011;46021;55.882;37.654;2022-07-12T07:25:38;9.45;;;5.47;;
50671;SDS011;46021;55.882;37.654;2022-07-12T07:28:04;9.98;;;6.00;;
50671;SDS011;46021;55.882;37.654;2022-07-12T07:30:31;11.32;;;5.82;;
50671;SDS011;46021;55.882;37.654;2022-07-12T07:33:15;15.07;;;6.60;;
50671;SDS011;46021;55.882;37.654;2022-07-12T07:35:42;13.80;;;6.38;;
50671;SDS011;46021;55.882;37.654;2022-07-12T07:38:09;9.27;;;5.35;;
50671;SDS011;46021;55.882;37.654;2022-07-12T07:40:36;10.13;;;5.43;;
50671;SDS011;46021;55.882;37.654;2022-07-12T07:43:03;10.90;;;4.93;;
50671;SDS011;46021;55.882;37.654;2022-07-12T07:45:29;11.50;;;5.38;;
50671;SDS011;46021;55.882;37.654;2022-07-12T07:47:56;12.73;;;5.32;;
50671;SDS011;46021;55.882;37.654;2022-07-12T07:50:23;13.80;;;5.30;;
50671;SDS011;46021;55.882;37.654;2022-07-12T07:52:49;16.70;;;5.33;;
50671;SDS011;46021;55.882;37.654;2022-07-12T07:55:16;7.47;;;4.57;;
50671;SDS011;46021;55.882;37.654;2022-07-12T07:57:43;10.93;;;6.10;;
50671;SDS011;46021;55.882;37.654;2022-07-12T08:00:12;12.63;;;5.35;;
50671;SDS011;46021;55.882;37.654;2022-07-12T08:02:39;11.35;;;5.28;;
50671;SDS011;46021;55.882;37.654;2022-07-12T08:05:06;16.63;;;5.03;;
50671;SDS011;46021;55.882;37.654;2022-07-12T08:07:33;12.02;;;5.22;;
50671;SDS011;46021;55.882;37.654;2022-07-12T08:09:59;15.38;;;5.25;;
50671;SDS011;46021;55.882;37.654;2022-07-12T08:12:26;14.30;;;5.85;;
50671;SDS011;46021;55.882;37.654;2022-07-12T08:14:52;11.13;;;4.88;;
50671;SDS011;46021;55.882;37.654;2022-07-12T08:17:19;12.60;;;5.15;;
50671;SDS011;46021;55.882;37.654;2022-07-12T08:19:46;8.88;;;4.90;;
50671;SDS011;46021;55.882;37.654;2022-07-12T08:22:12;14.48;;;6.10;;
50671;SDS011;46021;55.882;37.654;2022-07-12T08:24:39;10.95;;;5.22;;
50671;SDS011;46021;55.882;37.654;2022-07-12T08:27:05;11.30;;;5.27;;
50671;SDS011;46021;55.882;37.654;2022-07-12T08:29:32;8.53;;;4.60;;
50671;SDS011;46021;55.882;37.654;2022-07-12T08:31:58;7.53;;;4.90;;
50671;SDS011;46021;55.882;37.654;2022-07-12T08:34:25;6.63;;;4.75;;
50671;SDS011;46021;55.882;37.654;2022-07-12T08:36:52;16.77;;;4.80;;
50671;SDS011;46021;55.882;37.654;2022-07-12T08:39:18;8.70;;;5.10;;
50671;SDS011;46021;55.882;37.654;2022-07-12T08:41:45;15.13;;;4.40;;
50671;SDS011;46021;55.882;37.654;2022-07-12T08:44:11;13.63;;;4.63;;
50671;SDS011;46021;55.882;37.654;2022-07-12T08:46:38;11.90;;;4.33;;
50671;SDS011;46021;55.882;37.654;2022-07-12T08:49:05;14.65;;;5.30;;
50671;SDS011;46021;55.882;37.654;2022-07-12T08:51:33;9.85;;;4.72;;
50671;SDS011;46021;55.882;37.654;2022-07-12T08:56:32;7.75;;;4.30;;
50671;SDS011;46021;55.882;37.654;2022-07-12T08:59:13;11.23;;;4.50;;
50671;SDS011;46021;55.882;37.654;2022-07-12T09:01:41;9.80;;;4.18;;
50671;SDS011;46021;55.882;37.654;2022-07-12T09:04:09;10.45;;;4.15;;
50671;SDS011;46021;55.882;37.654;2022-07-12T09:06:37;9.65;;;4.20;;
50671;SDS011;46021;55.882;37.654;2022-07-12T09:09:04;6.25;;;3.80;;
50671;SDS011;46021;55.882;37.654;2022-07-12T09:11:30;12.82;;;4.00;;
50671;SDS011;46021;55.882;37.654;2022-07-12T09:13:56;10.70;;;3.63;;
50671;SDS011;46021;55.882;37.654;2022-07-12T09:16:24;6.68;;;3.58;;
50671;SDS011;46021;55.882;37.654;2022-07-12T09:19:10;7.13;;;3.70;;
50671;SDS011;46021;55.882;37.654;2022-07-12T09:21:40;9.52;;;3.42;;
50671;SDS011;46021;55.882;37.654;2022-07-12T09:24:13;10.43;;;3.83;;
50671;SDS011;46021;55.882;37.654;2022-07-12T09:26:39;9.23;;;3.58;;
50671;SDS011;46021;55.882;37.654;2022-07-12T09:29:06;6.13;;;3.38;;
50671;SDS011;46021;55.882;37.654;2022-07-12T09:31:38;7.60;;;2.90;;
50671;SDS011;46021;55.882;37.654;2022-07-12T09:34:26;10.07;;;3.17;;
50671;SDS011;46021;55.882;37.654;2022-07-12T09:37:11;7.38;;;3.38;;
50671;SDS011;46021;55.882;37.654;2022-07-12T09:39:38;4.63;;;2.72;;
50671;SDS011;46021;55.882;37.654;2022-07-12T09:42:05;6.93;;;2.80;;
50671;SDS011;46021;55.882;37.654;2022-07-12T09:44:34;4.45;;;3.05;;
50671;SDS011;46021;55.882;37.654;2022-07-12T09:49:28;6.50;;;2.67;;
50671;SDS011;46021;55.882;37.654;2022-07-12T09:51:55;7.00;;;3.80;;
50671;SDS011;46021;55.882;37.654;2022-07-12T09:54:24;7.65;;;3.40;;
50671;SDS011;46021;55.882;37.654;2022-07-12T09:56:52;4.90;;;2.72;;
50671;SDS011;46021;55.882;37.654;2022-07-12T09:59:23;3.78;;;2.45;;
50671;SDS011;46021;55.882;37.654;2022-07-12T10:01:53;8.15;;;3.13;;
50671;SDS011;46021;55.882;37.654;2022-07-12T10:04:24;6.32;;;2.72;;
50671;SDS011;46021;55.882;37.654;2022-07-12T10:06:56;4.72;;;2.60;;
50671;SDS011;46021;55.882;37.654;2022-07-12T10:09:22;3.75;;;2.58;;
50671;SDS011;46021;55.882;37.654;2022-07-12T10:11:51;4.85;;;2.30;;
50671;SDS011;46021;55.882;37.654;2022-07-12T10:14:18;7.15;;;2.80;;
50671;SDS011;46021;55.882;37.654;2022-07-12T10:16:46;6.38;;;2.65;;
50671;SDS011;46021;55.882;37.654;2022-07-12T10:19:20;5.50;;;2.25;;
50671;SDS011;46021;55.882;37.654;2022-07-12T10:21:48;5.97;;;2.45;;
50671;SDS011;46021;55.882;37.654;2022-07-12T10:27:33;9.02;;;5.47;;
50671;SDS011;46021;55.882;37.654;2022-07-12T10:32:46;4.53;;;2.45;;
50671;SDS011;46021;55.882;37.654;2022-07-12T10:35:17;4.45;;;2.60;;
50671;SDS011;46021;55.882;37.654;2022-07-12T10:40:40;9.57;;;2.67;;
50671;SDS011;46021;55.882;37.654;2022-07-12T10:43:13;5.97;;;2.78;;
50671;SDS011;46021;55.882;37.654;2022-07-12T10:45:42;9.30;;;3.20;;
50671;SDS011;46021;55.882;37.654;2022-07-12T10:48:18;5.22;;;2.63;;
50671;SDS011;46021;55.882;37.654;2022-07-12T10:50:52;6.78;;;3.30;;
50671;SDS011;46021;55.882;37.654;2022-07-12T10:53:22;5.00;;;2.50;;
50671;SDS011;46021;55.882;37.654;2022-07-12T10:56:09;5.53;;;2.45;;
50671;SDS011;46021;55.882;37.654;2022-07-12T10:58:40;5.18;;;2.70;;
50671;SDS011;46021;55.882;37.654;2022-07-12T11:01:09;7.35;;;2.55;;
50671;SDS011;46021;55.882;37.654;2022-07-12T11:03:37;8.00;;;2.60;;
50671;SDS011;46021;55.882;37.654;2022-07-12T11:06:05;9.32;;;2.35;;
50671;SDS011;46021;55.882;37.654;2022-07-12T11:08:46;11.18;;;3.63;;
50671;SDS011;46021;55.882;37.654;2022-07-12T11:11:13;8.45;;;2.13;;
50671;SDS011;46021;55.882;37.654;2022-07-12T11:13:41;9.52;;;2.33;;
50671;SDS011;46021;55.882;37.654;2022-07-12T11:16:07;4.28;;;1.83;;
50671;SDS011;46021;55.882;37.654;2022-07-12T11:18:34;3.60;;;1.90;;
50671;SDS011;46021;55.882;37.654;2022-07-12T11:21:02;4.95;;;1.77;;
50671;SDS011;46021;55.882;37.654;2022-07-12T11:23:29;7.55;;;1.48;;
50671;SDS011;46021;55.882;37.654;2022-07-12T11:25:56;5.20;;;1.40;;
50671;SDS011;46021;55.882;37.654;2022-07-12T11:28:24;4.28;;;1.90;;
50671;SDS011;46021;55.882;37.654;2022-07-12T11:30:53;4.78;;;1.50;;
50671;SDS011;46021;55.882;37.654;2022-07-12T11:33:28;4.30;;;1.30;;
50671;SDS011;46021;55.882;37.654;2022-07-12T11:35:57;3.05;;;1.08;;
50671;SDS011;46021;55.882;37.654;2022-07-12T11:38:24;2.83;;;1.08;;
50671;SDS011;46021;55.882;37.654;2022-07-12T11:40:54;11.35;;;5.63;;
50671;SDS011;46021;55.882;37.654;2022-07-12T11:43:21;8.25;;;2.15;;
50671;SDS011;46021;55.882;37.654;2022-07-12T11:48:15;4.95;;;1.08;;
50671;SDS011;46021;55.882;37.654;2022-07-12T11:50:42;5.35;;;1.20;;
50671;SDS011;46021;55.882;37.654;2022-07-12T11:53:14;7.57;;;1.13;;
50671;SDS011;46021;55.882;37.654;2022-07-12T11:55:43;1.80;;;1.20;;
50671;SDS011;46021;55.882;37.654;2022-07-12T11:58:11;6.22;;;1.20;;
50671;SDS011;46021;55.882;37.654;2022-07-12T12:00:38;2.38;;;1.20;;
50671;SDS011;46021;55.882;37.654;2022-07-12T12:03:04;5.15;;;1.15;;
50671;SDS011;46021;55.882;37.654;2022-07-12T12:05:32;3.45;;;1.40;;
50671;SDS011;46021;55.882;37.654;2022-07-12T12:07:59;5.28;;;1.20;;
50671;SDS011;46021;55.882;37.654;2022-07-12T12:10:26;7.90;;;1.48;;
50671;SDS011;46021;55.882;37.654;2022-07-12T12:12:53;3.00;;;1.15;;
50671;SDS011;46021;55.882;37.654;2022-07-12T12:15:21;3.67;;;1.20;;
50671;SDS011;46021;55.882;37.654;2022-07-12T12:17:51;5.78;;;1.20;;
50671;SDS011;46021;55.882;37.654;2022-07-12T12:20:19;7.93;;;1.20;;
50671;SDS011;46021;55.882;37.654;2022-07-12T12:22:48;4.15;;;1.33;;
50671;SDS011;46021;55.882;37.654;2022-07-12T12:25:16;12.70;;;2.92;;
50671;SDS011;46021;55.882;37.654;2022-07-12T12:27:43;2.28;;;1.33;;
50671;SDS011;46021;55.882;37.654;2022-07-12T12:30:11;2.70;;;1.20;;
50671;SDS011;46021;55.882;37.654;2022-07-12T12:32:48;2.70;;;1.00;;
50671;SDS011;46021;55.882;37.654;2022-07-12T12:35:16;5.90;;;1.48;;
50671;SDS011;46021;55.882;37.654;2022-07-12T12:37:51;2.92;;;1.27;;
50671;SDS011;46021;55.882;37.654;2022-07-12T12:40:19;2.80;;;1.00;;
50671;SDS011;46021;55.882;37.654;2022-07-12T12:42:47;5.43;;;1.40;;
50671;SDS011;46021;55.882;37.654;2022-07-12T12:47:53;3.63;;;1.38;;
50671;SDS011;46021;55.882;37.654;2022-07-12T12:53:07;3.80;;;1.20;;
50671;SDS011;46021;55.882;37.654;2022-07-12T12:55:35;2.45;;;1.40;;
50671;SDS011;46021;55.882;37.654;2022-07-12T12:58:02;5.30;;;1.17;;
50671;SDS011;46021;55.882;37.654;2022-07-12T13:00:29;4.07;;;1.27;;
50671;SDS011;46021;55.882;37.654;2022-07-12T13:05:24;2.80;;;1.40;;
50671;SDS011;46021;55.882;37.654;2022-07-12T13:07:51;3.17;;;1.17;;
50671;SDS011;46021;55.882;37.654;2022-07-12T13:10:20;3.78;;;1.40;;
50671;SDS011;46021;55.882;37.654;2022-07-12T13:12:46;3.15;;;1.15;;
50671;SDS011;46021;55.882;37.654;2022-07-12T13:15:13;1.87;;;1.20;;
50671;SDS011;46021;55.882;37.654;2022-07-12T13:17:39;2.67;;;1.40;;
50671;SDS011;46021;55.882;37.654;2022-07-12T13:20:06;8.57;;;1.67;;
50671;SDS011;46021;55.882;37.654;2022-07-12T13:22:33;11.43;;;1.98;;
50671;SDS011;46021;55.882;37.654;2022-07-12T13:25:00;8.15;;;1.73;;
50671;SDS011;46021;55.882;37.654;2022-07-12T13:27:29;6.32;;;1.85;;
50671;SDS011;46021;55.882;37.654;2022-07-12T13:29:56;7.38;;;1.50;;
50671;SDS011;46021;55.882;37.654;2022-07-12T13:32:22;5.80;;;1.30;;
50671;SDS011;46021;55.882;37.654;2022-07-12T13:37:16;2.72;;;1.10;;
50671;SDS011;46021;55.882;37.654;2022-07-12T13:39:42;7.32;;;1.42;;
50671;SDS011;46021;55.882;37.654;2022-07-12T13:42:30;8.55;;;2.15;;
50671;SDS011;46021;55.882;37.654;2022-07-12T13:44:57;12.00;;;5.65;;
50671;SDS011;46021;55.882;37.654;2022-07-12T13:47:23;4.10;;;1.52;;
50671;SDS011;46021;55.882;37.654;2022-07-12T13:49:50;3.63;;;1.57;;
50671;SDS011;46021;55.882;37.654;2022-07-12T13:52:16;4.43;;;1.30;;
50671;SDS011;46021;55.882;37.654;2022-07-12T13:54:43;4.38;;;1.40;;
50671;SDS011;46021;55.882;37.654;2022-07-12T13:57:10;6.57;;;1.88;;
50671;SDS011;46021;55.882;37.654;2022-07-12T13:59:38;11.60;;;1.57;;
50671;SDS011;46021;55.882;37.654;2022-07-12T14:02:04;5.18;;;1.55;;
50671;SDS011;46021;55.882;37.654;2022-07-12T14:04:31;2.17;;;1.20;;
50671;SDS011;46021;55.882;37.654;2022-07-12T14:06:58;1.90;;;1.10;;
50671;SDS011;46021;55.882;37.654;2022-07-12T14:09:25;5.35;;;1.20;;
50671;SDS011;46021;55.882;37.654;2022-07-12T14:11:51;1.95;;;1.00;;
50671;SDS011;46021;55.882;37.654;2022-07-12T14:17:06;10.38;;;5.43;;
50671;SDS011;46021;55.882;37.654;2022-07-12T14:19:33;7.93;;;1.80;;
50671;SDS011;46021;55.882;37.654;2022-07-12T14:21:59;7.40;;;1.55;;
50671;SDS011;46021;55.882;37.654;2022-07-12T14:24:26;5.60;;;1.10;;
50671;SDS011;46021;55.882;37.654;2022-07-12T14:26:52;3.10;;;1.20;;
50671;SDS011;46021;55.882;37.654;2022-07-12T14:29:19;2.20;;;1.20;;
50671;SDS011;46021;55.882;37.654;2022-07-12T14:31:45;4.37;;;1.00;;
50671;SDS011;46021;55.882;37.654;2022-07-12T14:34:13;6.53;;;1.13;;
50671;SDS011;46021;55.882;37.654;2022-07-12T14:36:39;3.53;;;1.10;;
50671;SDS011;46021;55.882;37.654;2022-07-12T14:39:06;1.63;;;1.00;;
50671;SDS011;46021;55.882;37.654;2022-07-12T14:41:32;10.13;;;5.43;;
50671;SDS011;46021;55.882;37.654;2022-07-12T14:43:59;2.38;;;1.30;;
50671;SDS011;46021;55.882;37.654;2022-07-12T14:46:25;3.33;;;1.60;;
50671;SDS011;46021;55.882;37.654;2022-07-12T14:48:52;1.83;;;1.20;;
50671;SDS011;46021;55.882;37.654;2022-07-12T14:51:19;3.97;;;1.05;;
50671;SDS011;46021;55.882;37.654;2022-07-12T14:56:13;2.20;;;1.45;;
50671;SDS011;46021;55.882;37.654;2022-07-12T14:58:40;3.40;;;1.23;;
50671;SDS011;46021;55.882;37.654;2022-07-12T15:01:06;3.70;;;1.30;;
50671;SDS011;46021;55.882;37.654;2022-07-12T15:03:34;4.53;;;1.40;;
50671;SDS011;46021;55.882;37.654;2022-07-12T15:06:00;4.53;;;2.43;;
50671;SDS011;46021;55.882;37.654;2022-07-12T15:08:28;16.38;;;9.45;;
50671;SDS011;46021;55.882;37.654;2022-07-12T15:10:54;5.53;;;2.17;;
50671;SDS011;46021;55.882;37.654;2022-07-12T15:13:21;3.10;;;1.58;;
50671;SDS011;46021;55.882;37.654;2022-07-12T15:15:48;5.60;;;1.60;;
50671;SDS011;46021;55.882;37.654;2022-07-12T15:18:16;5.33;;;2.10;;